Parvati — SVA7373 — position and weather

sailwx.info

Track history (hours):
 
Tides and Currents Weather Stations Pressure Air Temp Water Temp Dewpoint Dewpoint Depression Visibility Wind Speed Wind Dir Waves Ship Positions

Parvati

Last reported at 2018-Jul-08 05:26 UTC. Time now 2018-Jul-16 06:51 UTC.
Position N 37°59' E 022°53'.
Warning: this ship's position is 8 days out of date.

Length 40 m; draft 2.9 m.

Type: Pleasure craft. MMSI: 241499000.

Date/timePositionNaut miles runAvg speedWind from/ knotsBaromVisibWave heightAir tempDewpointWater temp
2018-Jul-08 05:26N 37°59' E 022°53'410.2
2018-Jul-08 05:00N 37°57' E 022°58'3 7.0
2018-Jul-08 04:30N 37°55' E 023°01'510.8
2018-Jul-08 04:00N 37°54' E 023°08'611.1
2018-Jul-08 03:30N 37°53' E 023°15'611.1
2018-Jul-08 03:00N 37°53' E 023°22'611.0
2018-Jul-08 02:30N 37°52' E 023°29'611.5
2018-Jul-08 02:00N 37°54' E 023°36'4 8.5
2018-Jul-08 01:30N 37°56' E 023°41'0 0.0
2018-Jul-08 01:00N 37°56' E 023°41'0 0.0
2018-Jul-08 00:30N 37°56' E 023°41'0 0.0
2018-Jul-07 23:59N 37°56' E 023°41'0 0.0
2018-Jul-07 23:30N 37°56' E 023°41'0 0.0
2018-Jul-07 23:00N 37°56' E 023°41'0 0.0
2018-Jul-07 22:30N 37°56' E 023°41'0 0.0
2018-Jul-07 22:00N 37°56' E 023°41'0 0.0
2018-Jul-07 21:30N 37°56' E 023°41'0 0.0
2018-Jul-07 21:00N 37°56' E 023°41'0 0.0
2018-Jul-07 20:30N 37°56' E 023°41'0 0.0
2018-Jul-07 20:00N 37°56' E 023°41'0 0.0
2018-Jul-07 19:30N 37°56' E 023°41'0 0.0
2018-Jul-07 19:00N 37°56' E 023°41'0 0.0
2018-Jul-07 18:30N 37°56' E 023°41'0 0.0
2018-Jul-07 18:00N 37°56' E 023°41'0 0.0
2018-Jul-07 17:30N 37°56' E 023°41'0 0.0
2018-Jul-07 17:00N 37°56' E 023°41'0 0.0
2018-Jul-07 16:30N 37°56' E 023°41'0 0.0
2018-Jul-07 16:00N 37°56' E 023°41'0 0.0
2018-Jul-07 15:31N 37°56' E 023°41'0 0.0
2018-Jul-07 15:01N 37°56' E 023°41'0 0.0
2018-Jul-07 14:30N 37°56' E 023°41'0 0.0
2018-Jul-07 14:00N 37°56' E 023°41'0 0.0
2018-Jul-07 13:30N 37°56' E 023°41'0 0.0
2018-Jul-07 13:00N 37°56' E 023°41'0 0.0
2018-Jul-07 12:30N 37°56' E 023°41'0 0.0
2018-Jul-07 12:00N 37°56' E 023°41'0 0.0
2018-Jul-07 11:30N 37°56' E 023°41'0 0.0
2018-Jul-07 11:00N 37°56' E 023°41'0 0.0
2018-Jul-07 10:31N 37°56' E 023°41'0 0.0
2018-Jul-07 10:00N 37°56' E 023°41'0 0.0
2018-Jul-07 09:30N 37°56' E 023°41'0 0.0
2018-Jul-07 09:00N 37°56' E 023°41'0 0.0
2018-Jul-07 08:31N 37°56' E 023°41'1 1.1
2018-Jul-07 08:00N 37°56' E 023°40'2 3.5
2018-Jul-07 07:30N 37°54' E 023°40'510.8
2018-Jul-07 07:00N 37°49' E 023°39'611.2
2018-Jul-07 06:30N 37°43' E 023°37'611.4
2018-Jul-07 06:00N 37°38' E 023°36'  
2018-Jul-03 10:51N 37°03' E 025°04'12 0.9
2018-Jul-02 22:16N 37°13' E 025°12'311.5
2018-Jul-02 22:00N 37°15' E 025°14'611.3
2018-Jul-02 21:30N 37°20' E 025°17'611.3
2018-Jul-02 21:00N 37°26' E 025°17'2 3.2
2018-Jul-02 20:29N 37°27' E 025°19'0 0.0
2018-Jul-02 19:11N 37°27' E 025°19'0 0.5
2018-Jul-02 18:42N 37°27' E 025°19'0 0.5
2018-Jul-02 17:50N 37°26' E 025°19'0 0.0
2018-Jul-02 16:57N 37°26' E 025°19'0 0.0
2018-Jul-02 14:57N 37°26' E 025°19'0 0.1
2018-Jul-02 14:25N 37°27' E 025°19'4 7.6
2018-Jul-02 13:50N 37°23' E 025°17'3 9.7
2018-Jul-02 13:30N 37°22' E 025°13'2 0.5
2018-Jul-02 10:05N 37°24' E 025°13'1 9.6
2018-Jul-02 10:00N 37°24' E 025°12'19 1.1
2018-Jul-01 15:57N 37°31' E 024°50'511.0
2018-Jul-01 15:30N 37°31' E 024°44'56 2.1
2018-Jun-30 12:54N 37°38' E 023°34'411.1
2018-Jun-30 12:30N 37°42' E 023°35'611.2
2018-Jun-30 11:59N 37°48' E 023°37'510.3
2018-Jun-30 11:30N 37°52' E 023°40'4 7.9
2018-Jun-30 11:01N 37°56' E 023°41'0 0.2
2018-Jun-30 10:30N 37°56' E 023°41'0 0.0
2018-Jun-30 10:00N 37°56' E 023°41'0 0.0
2018-Jun-30 09:30N 37°56' E 023°41'0 0.0
2018-Jun-30 09:00N 37°56' E 023°41'0 0.0
2018-Jun-30 08:30N 37°56' E 023°41'0 0.0
2018-Jun-30 08:00N 37°56' E 023°41'0 0.0
2018-Jun-30 07:30N 37°56' E 023°41'0 0.0
2018-Jun-30 07:00N 37°56' E 023°41'0 0.0
2018-Jun-30 06:30N 37°56' E 023°41'0 0.0
2018-Jun-30 06:00N 37°56' E 023°41'0 0.0
2018-Jun-30 05:30N 37°56' E 023°41'0 0.0
2018-Jun-30 05:00N 37°56' E 023°41'0 0.0
2018-Jun-30 04:30N 37°56' E 023°41'0 0.0
2018-Jun-30 04:00N 37°56' E 023°41'0 0.0
2018-Jun-30 03:30N 37°56' E 023°41'0 0.0
2018-Jun-30 03:00N 37°56' E 023°41'0 0.0
2018-Jun-30 02:30N 37°56' E 023°41'0 0.0
2018-Jun-30 02:00N 37°56' E 023°41'0 0.0
2018-Jun-30 01:30N 37°56' E 023°41'0 0.0
2018-Jun-30 01:00N 37°56' E 023°41'0 0.0
2018-Jun-30 00:30N 37°56' E 023°41'0 0.0
2018-Jun-30 00:00N 37°56' E 023°41'0 0.0
2018-Jun-29 23:30N 37°56' E 023°41'0 0.0
2018-Jun-29 23:00N 37°56' E 023°41'0 0.0
2018-Jun-29 22:30N 37°56' E 023°41'0 0.0
2018-Jun-29 22:00N 37°56' E 023°41'0 0.0
2018-Jun-29 21:30N 37°56' E 023°41'0 0.0
2018-Jun-29 21:00N 37°56' E 023°41'0 0.0
2018-Jun-29 20:30N 37°56' E 023°41'0 0.0
2018-Jun-29 20:00N 37°56' E 023°41'0 0.0
2018-Jun-29 19:30N 37°56' E 023°41'0 0.0
2018-Jun-29 19:01N 37°56' E 023°41'0 0.0
2018-Jun-29 18:30N 37°56' E 023°41'0 0.0
2018-Jun-29 18:00N 37°56' E 023°41'0 0.0
2018-Jun-29 17:30N 37°56' E 023°41'0 0.0
2018-Jun-29 17:00N 37°56' E 023°41'0 0.0
2018-Jun-29 16:30N 37°56' E 023°41'0 0.0
2018-Jun-29 16:00N 37°56' E 023°41'0 0.0
2018-Jun-29 15:30N 37°56' E 023°41'0 0.0
2018-Jun-29 15:00N 37°56' E 023°41'0 0.0
2018-Jun-29 14:30N 37°56' E 023°41'0 0.0
2018-Jun-29 14:00N 37°56' E 023°41'0 0.0
2018-Jun-29 13:30N 37°56' E 023°41'0 0.0
2018-Jun-29 13:00N 37°56' E 023°41'0 0.0
2018-Jun-29 12:31N 37°56' E 023°41'0 0.0
2018-Jun-29 12:00N 37°56' E 023°41'1 2.3
2018-Jun-29 11:30N 37°55' E 023°40'611.1
2018-Jun-29 11:00N 37°49' E 023°39'611.2
2018-Jun-29 10:30N 37°44' E 023°37'611.1
2018-Jun-29 10:00N 37°39' E 023°36'  
Track history (hours):
 
Tides and Currents Weather Stations Pressure Air Temp Water Temp Dewpoint Dewpoint Depression Visibility Wind Speed Wind Dir Waves Ship Positions

Parvati

Last reported at 2018-Jul-08 05:26 UTC. Time now 2018-Jul-16 06:51 UTC.
Position N 37°59' E 022°53'.
Warning: this ship's position is 8 days out of date.

Length 40 m; draft 2.9 m.

Type: Pleasure craft. MMSI: 241499000.

Date/timePositionNaut miles runAvg speedWind from/ knotsBaromVisibWave heightAir tempDewpointWater temp
2018-Jul-08 05:26N 37°59' E 022°53'410.2
2018-Jul-08 05:00N 37°57' E 022°58'3 7.0
2018-Jul-08 04:30N 37°55' E 023°01'510.8
2018-Jul-08 04:00N 37°54' E 023°08'611.1
2018-Jul-08 03:30N 37°53' E 023°15'611.1
2018-Jul-08 03:00N 37°53' E 023°22'611.0
2018-Jul-08 02:30N 37°52' E 023°29'611.5
2018-Jul-08 02:00N 37°54' E 023°36'4 8.5
2018-Jul-08 01:30N 37°56' E 023°41'0 0.0
2018-Jul-08 01:00N 37°56' E 023°41'0 0.0
2018-Jul-08 00:30N 37°56' E 023°41'0 0.0
2018-Jul-07 23:59N 37°56' E 023°41'0 0.0
2018-Jul-07 23:30N 37°56' E 023°41'0 0.0
2018-Jul-07 23:00N 37°56' E 023°41'0 0.0
2018-Jul-07 22:30N 37°56' E 023°41'0 0.0
2018-Jul-07 22:00N 37°56' E 023°41'0 0.0
2018-Jul-07 21:30N 37°56' E 023°41'0 0.0
2018-Jul-07 21:00N 37°56' E 023°41'0 0.0
2018-Jul-07 20:30N 37°56' E 023°41'0 0.0
2018-Jul-07 20:00N 37°56' E 023°41'0 0.0
2018-Jul-07 19:30N 37°56' E 023°41'0 0.0
2018-Jul-07 19:00N 37°56' E 023°41'0 0.0
2018-Jul-07 18:30N 37°56' E 023°41'0 0.0
2018-Jul-07 18:00N 37°56' E 023°41'0 0.0
2018-Jul-07 17:30N 37°56' E 023°41'0 0.0
2018-Jul-07 17:00N 37°56' E 023°41'0 0.0
2018-Jul-07 16:30N 37°56' E 023°41'0 0.0
2018-Jul-07 16:00N 37°56' E 023°41'0 0.0
2018-Jul-07 15:31N 37°56' E 023°41'0 0.0
2018-Jul-07 15:01N 37°56' E 023°41'0 0.0
2018-Jul-07 14:30N 37°56' E 023°41'0 0.0
2018-Jul-07 14:00N 37°56' E 023°41'0 0.0
2018-Jul-07 13:30N 37°56' E 023°41'0 0.0
2018-Jul-07 13:00N 37°56' E 023°41'0 0.0
2018-Jul-07 12:30N 37°56' E 023°41'0 0.0
2018-Jul-07 12:00N 37°56' E 023°41'0 0.0
2018-Jul-07 11:30N 37°56' E 023°41'0 0.0
2018-Jul-07 11:00N 37°56' E 023°41'0 0.0
2018-Jul-07 10:31N 37°56' E 023°41'0 0.0
2018-Jul-07 10:00N 37°56' E 023°41'0 0.0
2018-Jul-07 09:30N 37°56' E 023°41'0 0.0
2018-Jul-07 09:00N 37°56' E 023°41'0 0.0
2018-Jul-07 08:31N 37°56' E 023°41'1 1.1
2018-Jul-07 08:00N 37°56' E 023°40'2 3.5
2018-Jul-07 07:30N 37°54' E 023°40'510.8
2018-Jul-07 07:00N 37°49' E 023°39'611.2
2018-Jul-07 06:30N 37°43' E 023°37'611.4
2018-Jul-07 06:00N 37°38' E 023°36'  
2018-Jul-03 10:51N 37°03' E 025°04'12 0.9
2018-Jul-02 22:16N 37°13' E 025°12'311.5
2018-Jul-02 22:00N 37°15' E 025°14'611.3
2018-Jul-02 21:30N 37°20' E 025°17'611.3
2018-Jul-02 21:00N 37°26' E 025°17'2 3.2
2018-Jul-02 20:29N 37°27' E 025°19'0 0.0
2018-Jul-02 19:11N 37°27' E 025°19'0 0.5
2018-Jul-02 18:42N 37°27' E 025°19'0 0.5
2018-Jul-02 17:50N 37°26' E 025°19'0 0.0
2018-Jul-02 16:57N 37°26' E 025°19'0 0.0
2018-Jul-02 14:57N 37°26' E 025°19'0 0.1
2018-Jul-02 14:25N 37°27' E 025°19'4 7.6
2018-Jul-02 13:50N 37°23' E 025°17'3 9.7
2018-Jul-02 13:30N 37°22' E 025°13'2 0.5
2018-Jul-02 10:05N 37°24' E 025°13'1 9.6
2018-Jul-02 10:00N 37°24' E 025°12'19 1.1
2018-Jul-01 15:57N 37°31' E 024°50'511.0
2018-Jul-01 15:30N 37°31' E 024°44'56 2.1
2018-Jun-30 12:54N 37°38' E 023°34'411.1
2018-Jun-30 12:30N 37°42' E 023°35'611.2
2018-Jun-30 11:59N 37°48' E 023°37'510.3
2018-Jun-30 11:30N 37°52' E 023°40'4 7.9
2018-Jun-30 11:01N 37°56' E 023°41'0 0.2
2018-Jun-30 10:30N 37°56' E 023°41'0 0.0
2018-Jun-30 10:00N 37°56' E 023°41'0 0.0
2018-Jun-30 09:30N 37°56' E 023°41'0 0.0
2018-Jun-30 09:00N 37°56' E 023°41'0 0.0
2018-Jun-30 08:30N 37°56' E 023°41'0 0.0
2018-Jun-30 08:00N 37°56' E 023°41'0 0.0
2018-Jun-30 07:30N 37°56' E 023°41'0 0.0
2018-Jun-30 07:00N 37°56' E 023°41'0 0.0
2018-Jun-30 06:30N 37°56' E 023°41'0 0.0
2018-Jun-30 06:00N 37°56' E 023°41'0 0.0
2018-Jun-30 05:30N 37°56' E 023°41'0 0.0
2018-Jun-30 05:00N 37°56' E 023°41'0 0.0
2018-Jun-30 04:30N 37°56' E 023°41'0 0.0
2018-Jun-30 04:00N 37°56' E 023°41'0 0.0
2018-Jun-30 03:30N 37°56' E 023°41'0 0.0
2018-Jun-30 03:00N 37°56' E 023°41'0 0.0
2018-Jun-30 02:30N 37°56' E 023°41'0 0.0
2018-Jun-30 02:00N 37°56' E 023°41'0 0.0
2018-Jun-30 01:30N 37°56' E 023°41'0 0.0
2018-Jun-30 01:00N 37°56' E 023°41'0 0.0
2018-Jun-30 00:30N 37°56' E 023°41'0 0.0
2018-Jun-30 00:00N 37°56' E 023°41'0 0.0
2018-Jun-29 23:30N 37°56' E 023°41'0 0.0
2018-Jun-29 23:00N 37°56' E 023°41'0 0.0
2018-Jun-29 22:30N 37°56' E 023°41'0 0.0
2018-Jun-29 22:00N 37°56' E 023°41'0 0.0
2018-Jun-29 21:30N 37°56' E 023°41'0 0.0
2018-Jun-29 21:00N 37°56' E 023°41'0 0.0
2018-Jun-29 20:30N 37°56' E 023°41'0 0.0
2018-Jun-29 20:00N 37°56' E 023°41'0 0.0
2018-Jun-29 19:30N 37°56' E 023°41'0 0.0
2018-Jun-29 19:01N 37°56' E 023°41'0 0.0
2018-Jun-29 18:30N 37°56' E 023°41'0 0.0
2018-Jun-29 18:00N 37°56' E 023°41'0 0.0
2018-Jun-29 17:30N 37°56' E 023°41'0 0.0
2018-Jun-29 17:00N 37°56' E 023°41'0 0.0
2018-Jun-29 16:30N 37°56' E 023°41'0 0.0
2018-Jun-29 16:00N 37°56' E 023°41'0 0.0
2018-Jun-29 15:30N 37°56' E 023°41'0 0.0
2018-Jun-29 15:00N 37°56' E 023°41'0 0.0
2018-Jun-29 14:30N 37°56' E 023°41'0 0.0
2018-Jun-29 14:00N 37°56' E 023°41'0 0.0
2018-Jun-29 13:30N 37°56' E 023°41'0 0.0
2018-Jun-29 13:00N 37°56' E 023°41'0 0.0
2018-Jun-29 12:31N 37°56' E 023°41'0 0.0
2018-Jun-29 12:00N 37°56' E 023°41'1 2.3
2018-Jun-29 11:30N 37°55' E 023°40'611.1
2018-Jun-29 11:00N 37°49' E 023°39'611.2
2018-Jun-29 10:30N 37°44' E 023°37'611.1
2018-Jun-29 10:00N 37°39' E 023°36'  

Dump ship's entire track history